createdAt,value
2018-09-04T00:00:14.549Z,15.70
2018-09-04T00:02:44.128Z,15.70
2018-09-04T00:05:13.352Z,15.60
2018-09-04T00:07:42.492Z,15.70
2018-09-04T00:10:11.956Z,15.60
2018-09-04T00:12:41.637Z,15.60
2018-09-04T00:15:10.832Z,15.60
2018-09-04T00:17:40.940Z,15.60
2018-09-04T00:20:10.148Z,15.60
2018-09-04T00:22:39.349Z,15.60
2018-09-04T00:25:08.580Z,15.60
2018-09-04T00:27:38.547Z,15.50
2018-09-04T00:30:08.216Z,15.50
2018-09-04T00:32:37.336Z,15.50
2018-09-04T00:35:06.813Z,15.40
2018-09-04T00:37:35.971Z,15.40
2018-09-04T00:40:06.340Z,15.30
2018-09-04T00:42:35.488Z,15.30
2018-09-04T00:45:04.808Z,15.30
2018-09-04T00:47:34.117Z,15.30
2018-09-04T00:50:03.240Z,15.30
2018-09-04T00:52:32.512Z,15.20
2018-09-04T00:55:01.680Z,15.20
2018-09-04T00:57:30.880Z,15.20
2018-09-04T01:00:00.608Z,15.20
2018-09-04T01:02:29.792Z,15.10
2018-09-04T01:04:58.955Z,15.10
2018-09-04T01:07:28.080Z,15.10
2018-09-04T01:09:57.272Z,15.00
2018-09-04T01:12:26.512Z,15.00
2018-09-04T01:14:58.274Z,15.00
2018-09-04T01:17:27.480Z,14.90
2018-09-04T01:19:56.608Z,14.80
2018-09-04T01:22:26.060Z,14.80
2018-09-04T01:24:55.232Z,14.80
2018-09-04T01:27:24.328Z,14.80
2018-09-04T01:29:53.496Z,14.70
2018-09-04T01:32:22.603Z,14.70
2018-09-04T01:34:51.631Z,14.70
2018-09-04T01:37:20.783Z,14.60
2018-09-04T01:39:49.904Z,14.60
2018-09-04T01:42:19.296Z,14.60
2018-09-04T01:44:48.628Z,14.60
2018-09-04T01:47:17.757Z,14.60
2018-09-04T01:49:46.928Z,14.60
2018-09-04T01:52:16.292Z,14.60
2018-09-04T01:54:45.645Z,14.60
2018-09-04T01:57:14.776Z,14.60
2018-09-04T01:59:43.880Z,14.60
2018-09-04T02:02:14.276Z,14.50
2018-09-04T02:04:43.420Z,14.50
2018-09-04T02:07:12.744Z,14.50
2018-09-04T02:09:41.904Z,14.40
2018-09-04T02:12:11.094Z,14.40
2018-09-04T02:14:40.352Z,14.30
2018-09-04T02:17:09.844Z,14.20
2018-09-04T02:19:38.940Z,14.00
2018-09-04T02:22:08.140Z,14.00
2018-09-04T02:24:37.540Z,13.90
2018-09-04T02:27:06.712Z,14.00
2018-09-04T02:29:35.783Z,13.90
2018-09-04T02:32:04.887Z,14.00
2018-09-04T02:34:34.076Z,14.00
2018-09-04T02:37:03.300Z,14.00
2018-09-04T02:39:32.384Z,14.00
2018-09-04T02:42:01.476Z,14.00
2018-09-04T02:44:30.909Z,14.00
2018-09-04T02:47:00.068Z,14.00
2018-09-04T02:49:29.266Z,14.00
2018-09-04T02:51:58.471Z,14.00
2018-09-04T02:54:27.580Z,14.00
2018-09-04T02:56:56.697Z,14.00
2018-09-04T02:59:26.493Z,14.00
2018-09-04T03:01:55.676Z,13.90
2018-09-04T03:04:25.292Z,13.90
2018-09-04T03:06:54.992Z,13.90
2018-09-04T03:09:24.083Z,13.90
2018-09-04T03:11:53.520Z,13.80
2018-09-04T03:14:22.892Z,13.70
2018-09-04T03:16:51.976Z,13.70
2018-09-04T03:19:21.071Z,13.70
2018-09-04T03:21:50.213Z,13.70
2018-09-04T03:24:19.413Z,13.60
2018-09-04T03:26:48.468Z,13.60
2018-09-04T03:29:17.556Z,13.60
2018-09-04T03:31:47.684Z,13.60
2018-09-04T03:34:16.884Z,13.60
2018-09-04T03:36:46.116Z,13.60
2018-09-04T03:39:15.700Z,13.60
2018-09-04T03:41:45.129Z,13.60
2018-09-04T03:44:14.614Z,13.60
2018-09-04T03:46:43.688Z,13.60
2018-09-04T03:49:12.924Z,13.60
2018-09-04T03:51:42.328Z,13.60
2018-09-04T03:54:11.487Z,13.50
2018-09-04T03:56:40.696Z,13.50
2018-09-04T03:59:09.888Z,13.50
2018-09-04T04:01:39.128Z,13.50
2018-09-04T04:04:08.193Z,13.40
2018-09-04T04:06:37.253Z,13.40
2018-09-04T04:09:09.172Z,13.30
2018-09-04T04:11:38.240Z,13.40
2018-09-04T04:14:07.888Z,13.40
2018-09-04T04:16:36.971Z,13.50
2018-09-04T04:19:06.130Z,13.50
2018-09-04T04:21:35.323Z,13.50
2018-09-04T04:24:04.450Z,13.60
2018-09-04T04:26:33.656Z,13.60
2018-09-04T04:29:02.844Z,13.60
2018-09-04T04:31:32.332Z,13.70
2018-09-04T04:34:01.560Z,13.70
2018-09-04T04:36:30.672Z,13.70
2018-09-04T04:38:59.756Z,13.80
2018-09-04T04:41:29.152Z,13.80
2018-09-04T04:43:58.320Z,13.80
2018-09-04T04:46:27.464Z,13.80
2018-09-04T04:48:56.840Z,13.80
2018-09-04T04:51:26.016Z,13.80
2018-09-04T04:53:55.206Z,13.90
2018-09-04T04:56:24.312Z,13.70
2018-09-04T04:58:54.548Z,13.60
2018-09-04T05:01:23.961Z,13.70
2018-09-04T05:03:53.086Z,13.70
2018-09-04T05:06:22.221Z,13.70
2018-09-04T05:08:51.367Z,13.80
2018-09-04T05:11:21.495Z,13.80
2018-09-04T05:13:51.296Z,13.90
2018-09-04T05:16:20.729Z,13.90
2018-09-04T05:18:50.881Z,14.00
2018-09-04T05:21:20.101Z,14.00
2018-09-04T05:23:49.159Z,14.00
2018-09-04T05:26:18.238Z,14.00
2018-09-04T05:28:47.699Z,14.10
2018-09-04T05:31:17.745Z,14.10
2018-09-04T05:33:47.620Z,14.20
2018-09-04T05:36:17.309Z,14.30
2018-09-04T05:38:46.613Z,14.30
2018-09-04T05:41:16.500Z,14.40
2018-09-04T05:43:50.258Z,14.40
2018-09-04T05:46:35.068Z,14.50
2018-09-04T05:49:04.164Z,14.40
2018-09-04T05:51:33.391Z,14.50
2018-09-04T05:54:02.889Z,14.60
2018-09-04T05:56:32.072Z,14.70
2018-09-04T05:59:01.288Z,14.90
2018-09-04T06:01:30.662Z,15.00
2018-09-04T06:03:59.824Z,15.10
2018-09-04T06:06:29.880Z,15.10
2018-09-04T06:08:59.852Z,15.10
2018-09-04T06:11:29.097Z,15.20
2018-09-04T06:13:58.206Z,15.30
2018-09-04T06:16:28.413Z,15.40
2018-09-04T06:18:57.508Z,15.40
2018-09-04T06:21:26.748Z,15.50
2018-09-04T06:23:56.081Z,15.60
2018-09-04T06:26:25.143Z,15.40
2018-09-04T06:28:54.472Z,15.40
2018-09-04T06:31:23.805Z,15.50
2018-09-04T06:33:53.235Z,15.60
2018-09-04T06:36:23.341Z,15.80
2018-09-04T06:38:52.475Z,15.80
2018-09-04T06:41:21.624Z,15.80
2018-09-04T06:43:50.962Z,15.80
2018-09-04T06:46:20.078Z,15.90
2018-09-04T06:48:49.160Z,16.10
2018-09-04T06:51:18.466Z,15.90
2018-09-04T06:53:48.152Z,15.70
2018-09-04T06:56:17.287Z,15.80
2018-09-04T06:58:46.336Z,15.90
2018-09-04T07:01:15.560Z,15.90
2018-09-04T07:03:44.859Z,16.20
2018-09-04T07:06:14.032Z,16.40
2018-09-04T07:08:43.208Z,16.80
2018-09-04T07:11:12.780Z,16.90
2018-09-04T07:13:41.935Z,16.80
2018-09-04T07:16:11.134Z,16.60
2018-09-04T07:18:40.329Z,16.50
2018-09-04T07:21:10.587Z,16.40
2018-09-04T07:23:40.773Z,16.50
2018-09-04T07:26:09.944Z,17.00
2018-09-04T07:28:39.045Z,17.60
2018-09-04T07:31:09.122Z,18.00
2018-09-04T07:33:38.372Z,18.20
2018-09-04T07:36:08.024Z,18.60
2018-09-04T07:38:37.388Z,18.80
2018-09-04T07:41:06.589Z,18.50
2018-09-04T07:43:35.841Z,18.40
2018-09-04T07:46:05.076Z,18.50
2018-09-04T07:48:34.234Z,18.60
2018-09-04T07:51:03.380Z,18.70
2018-09-04T07:53:32.620Z,18.60
2018-09-04T07:56:03.300Z,19.10
2018-09-04T07:58:32.501Z,18.90
2018-09-04T08:01:01.844Z,19.20
2018-09-04T08:03:30.892Z,20.00
2018-09-04T08:06:00.129Z,21.60
2018-09-04T08:08:29.333Z,22.70
2018-09-04T08:10:58.829Z,23.70
2018-09-04T08:13:28.342Z,24.60
2018-09-04T08:15:58.450Z,24.80
2018-09-04T08:18:27.849Z,25.20
2018-09-04T08:20:57.748Z,24.70
2018-09-04T08:23:26.915Z,24.60
2018-09-04T08:25:56.981Z,25.10
2018-09-04T08:28:26.160Z,25.70
2018-09-04T08:30:56.206Z,26.00
2018-09-04T08:33:25.410Z,26.80
2018-09-04T08:35:54.804Z,28.30
2018-09-04T08:38:23.844Z,28.40
2018-09-04T08:40:55.212Z,27.70
2018-09-04T08:43:24.417Z,27.80
2018-09-04T08:45:54.436Z,27.10
2018-09-04T08:48:23.532Z,27.60
2018-09-04T08:50:52.873Z,29.40
2018-09-04T08:53:22.937Z,30.80
2018-09-04T08:55:52.552Z,31.00
2018-09-04T08:58:21.680Z,29.70
2018-09-04T09:00:51.009Z,26.40
2018-09-04T09:03:21.269Z,25.20
2018-09-04T09:05:54.814Z,27.00
2018-09-04T09:08:23.986Z,29.30
2018-09-04T09:10:53.157Z,31.20
2018-09-04T09:13:22.929Z,32.50
2018-09-04T09:15:54.256Z,32.20
2018-09-04T09:18:24.889Z,31.60
2018-09-04T09:20:54.609Z,33.60
2018-09-04T09:23:23.710Z,35.70
2018-09-04T09:25:56.064Z,34.80
2018-09-04T09:28:25.431Z,33.20
2018-09-04T09:30:54.561Z,31.70
2018-09-04T09:33:23.703Z,29.20
2018-09-04T09:35:52.833Z,29.60
2018-09-04T09:38:22.405Z,31.30
2018-09-04T09:40:52.532Z,32.40
2018-09-04T09:43:21.568Z,33.20
2018-09-04T09:45:50.941Z,33.30
2018-09-04T09:48:20.036Z,33.20
2018-09-04T09:50:50.175Z,33.90
2018-09-04T09:53:19.487Z,32.80
2018-09-04T09:55:48.533Z,32.70
2018-09-04T09:58:17.743Z,32.90
2018-09-04T10:00:52.846Z,32.90
2018-09-04T10:03:27.196Z,32.80
2018-09-04T10:05:56.313Z,30.00
2018-09-04T10:08:25.405Z,28.70
2018-09-04T10:10:54.644Z,27.60
2018-09-04T10:13:23.707Z,28.70
2018-09-04T10:15:53.508Z,29.40
2018-09-04T10:18:22.992Z,28.80
2018-09-04T10:20:52.126Z,29.60
2018-09-04T10:23:21.241Z,28.20
2018-09-04T10:25:50.589Z,27.30
2018-09-04T10:28:21.020Z,26.80
2018-09-04T10:30:50.151Z,28.60
2018-09-04T10:33:19.315Z,30.50
2018-09-04T10:35:48.777Z,30.70
2018-09-04T10:38:17.812Z,30.80
2018-09-04T10:40:47.836Z,31.10
2018-09-04T10:43:17.172Z,31.00
2018-09-04T10:45:51.652Z,30.70
2018-09-04T10:48:24.525Z,30.80
2018-09-04T10:50:56.853Z,31.30
2018-09-04T10:53:26.073Z,32.40
2018-09-04T10:55:55.399Z,33.50
2018-09-04T10:58:24.653Z,33.70
2018-09-04T11:00:53.836Z,33.20
2018-09-04T11:03:23.212Z,33.40
2018-09-04T11:05:52.570Z,34.00
2018-09-04T11:08:22.403Z,32.50
2018-09-04T11:10:52.888Z,31.40
2018-09-04T11:13:22.084Z,30.10
2018-09-04T11:15:54.669Z,29.20
2018-09-04T11:18:24.319Z,28.70
2018-09-04T11:20:53.577Z,28.90
2018-09-04T11:23:22.788Z,29.90
2018-09-04T11:25:52.834Z,31.20
2018-09-04T11:28:22.298Z,30.80
2018-09-04T11:30:51.596Z,30.30
2018-09-04T11:33:20.840Z,29.80
2018-09-04T11:35:51.596Z,28.20
2018-09-04T11:38:20.712Z,27.80
2018-09-04T11:40:50.347Z,27.80
2018-09-04T11:43:19.721Z,27.80
2018-09-04T11:45:49.807Z,27.90
2018-09-04T11:48:19.033Z,27.00
2018-09-04T11:50:48.157Z,27.70
2018-09-04T11:53:17.281Z,27.60
2018-09-04T11:55:47.540Z,26.60
2018-09-04T11:58:16.760Z,26.90
2018-09-04T12:00:48.768Z,28.70
2018-09-04T12:03:18.014Z,30.30
2018-09-04T12:05:47.366Z,30.90
2018-09-04T12:08:16.368Z,31.20
2018-09-04T12:10:46.396Z,32.10
2018-09-04T12:13:21.050Z,33.70
2018-09-04T12:15:50.615Z,34.30
2018-09-04T12:18:19.844Z,33.90
2018-09-04T12:20:51.058Z,31.70
2018-09-04T12:23:21.028Z,29.10
2018-09-04T12:25:51.609Z,28.40
2018-09-04T12:28:21.060Z,28.00
2018-09-04T12:30:51.172Z,27.30
2018-09-04T12:33:20.336Z,27.60
2018-09-04T12:35:49.648Z,27.80
2018-09-04T12:38:21.036Z,27.60
2018-09-04T12:40:51.033Z,27.70
2018-09-04T12:43:20.503Z,28.30
2018-09-04T12:45:49.612Z,29.40
2018-09-04T12:48:24.568Z,29.90
2018-09-04T12:50:54.864Z,29.60
2018-09-04T12:53:24.988Z,30.00
2018-09-04T12:55:54.192Z,30.30
2018-09-04T12:58:23.284Z,30.00
2018-09-04T13:00:53.712Z,30.30
2018-09-04T13:03:24.839Z,30.70
2018-09-04T13:05:54.285Z,29.70
2018-09-04T13:08:25.125Z,29.50
2018-09-04T13:10:54.289Z,29.90
2018-09-04T13:13:23.404Z,29.80
2018-09-04T13:15:54.200Z,29.60
2018-09-04T13:18:23.821Z,29.60
2018-09-04T13:20:53.104Z,29.00
2018-09-04T13:23:22.328Z,28.60
2018-09-04T13:25:53.141Z,27.80
2018-09-04T13:28:22.401Z,28.50
2018-09-04T13:30:51.500Z,29.50
2018-09-04T13:33:21.577Z,29.00
2018-09-04T13:35:50.693Z,27.50
2018-09-04T13:38:19.908Z,27.60
2018-09-04T13:40:52.368Z,26.90
2018-09-04T13:43:21.680Z,27.20
2018-09-04T13:45:50.841Z,28.20
2018-09-04T13:48:24.056Z,29.40
2018-09-04T13:50:57.302Z,30.40
2018-09-04T13:53:27.259Z,30.70
2018-09-04T13:55:56.822Z,30.30
2018-09-04T13:58:25.979Z,30.50
2018-09-04T14:00:55.196Z,31.10
2018-09-04T14:03:24.536Z,31.10
2018-09-04T14:05:53.832Z,31.60
2018-09-04T14:08:23.120Z,31.20
2018-09-04T14:10:52.420Z,31.40
2018-09-04T14:13:21.472Z,32.00
2018-09-04T14:15:53.104Z,31.40
2018-09-04T14:18:22.292Z,31.20
2018-09-04T14:20:51.492Z,31.10
2018-09-04T14:23:20.776Z,31.70
2018-09-04T14:25:51.328Z,32.10
2018-09-04T14:28:40.973Z,31.60
2018-09-04T14:30:49.664Z,31.40
2018-09-04T14:33:18.796Z,31.00
2018-09-04T14:35:48.020Z,30.40
2018-09-04T14:38:17.100Z,29.40
2018-09-04T14:40:46.432Z,29.00
2018-09-04T14:43:15.637Z,28.90
2018-09-04T14:45:44.804Z,28.10
2018-09-04T14:48:14.182Z,28.00
2018-09-04T14:50:43.266Z,27.90
2018-09-04T14:53:12.398Z,27.40
2018-09-04T14:55:41.612Z,27.50
2018-09-04T14:58:10.685Z,27.00
2018-09-04T15:00:40.804Z,26.60
2018-09-04T15:03:10.286Z,26.40
2018-09-04T15:05:39.380Z,25.80
2018-09-04T15:08:08.500Z,25.30
2018-09-04T15:10:37.874Z,25.40
2018-09-04T15:13:07.088Z,25.40
2018-09-04T15:15:36.167Z,25.20
2018-09-04T15:18:05.736Z,25.20
2018-09-04T15:20:34.833Z,25.30
2018-09-04T15:23:04.641Z,25.70
2018-09-04T15:25:33.872Z,25.90
2018-09-04T15:28:03.639Z,25.80
2018-09-04T15:30:33.039Z,25.60
